Time;durP1;ratioP1;P1;durP2;ratioP2;P2;SDS_P1;SDS_P2;PMS_P1;PMS_P2;Temp;Humidity;BMP_temperature;BMP_pressure;BME280_temperature;BME280_humidity;BME280_pressure;Samples;Min_cycle;Max_cycle;Signal;HPM_P1;HPM_P2
2022/11/27 00:05:13;;;;;;;13.97;5.07;;;;;;;5.92;100.00;102100.69;20989422;28;20546;-72
2022/11/27 00:15:35;;;;;;;16.70;4.60;;;;;;;5.89;100.00;102091.25;20989285;28;20415;-71
2022/11/27 00:25:56;;;;;;;17.27;4.73;;;;;;;5.90;100.00;102108.47;20999589;28;20606;-72
2022/11/27 00:36:18;;;;;;;21.33;4.97;;;;;;;5.93;100.00;102094.63;21004327;28;20036;-72
2022/11/27 00:46:42;;;;;;;13.60;4.60;;;;;;;5.88;100.00;102081.81;20991586;28;20040;-71
2022/11/27 00:57:04;;;;;;;17.10;5.03;;;;;;;5.83;100.00;102075.03;20990133;28;20090;-71
2022/11/27 01:07:25;;;;;;;16.57;4.70;;;;;;;5.70;100.00;102064.13;20996651;28;20049;-71
2022/11/27 01:17:47;;;;;;;15.98;4.95;;;;;;;5.58;100.00;102063.59;20994578;28;20045;-71
2022/11/27 01:28:08;;;;;;;12.53;4.90;;;;;;;5.44;100.00;102070.81;20982705;28;20040;-71
2022/11/27 01:38:31;;;;;;;14.07;5.20;;;;;;;5.32;100.00;102055.59;21000720;28;20049;-73
2022/11/27 01:48:54;;;;;;;;;;;;;;;5.18;100.00;102052.50;20980806;28;20458;-72
2022/11/27 01:59:17;;;;;;;15.93;5.32;;;;;;;5.13;100.00;102033.66;20990046;28;19924;-72
2022/11/27 02:09:39;;;;;;;16.20;4.75;;;;;;;5.08;100.00;102025.19;20972992;28;20040;-72
2022/11/27 02:20:02;;;;;;;15.00;4.82;;;;;;;4.97;100.00;102037.47;20994108;28;20044;-72
2022/11/27 02:30:23;;;;;;;16.15;4.22;;;;;;;4.92;100.00;102018.66;20966456;28;20518;-72
2022/11/27 02:40:58;;;;;;;12.57;4.80;;;;;;;4.85;100.00;102021.41;20991174;28;20479;-72
2022/11/27 02:51:27;;;;;;;10.02;4.35;;;;;;;4.79;100.00;102017.22;20988633;28;20098;-71
2022/11/27 03:01:56;;;;;;;14.88;4.55;;;;;;;4.69;100.00;102014.88;20989056;28;20109;-72
2022/11/27 03:12:18;;;;;;;17.40;4.47;;;;;;;4.59;100.00;102007.34;20990897;28;20048;-72
2022/11/27 03:22:40;;;;;;;;;;;;;;;4.48;100.00;101988.66;20982251;28;20751;-72
2022/11/27 03:33:02;;;;;;;15.00;4.47;;;;;;;4.35;100.00;101982.91;20987827;28;19929;-72
2022/11/27 03:43:28;;;;;;;11.90;5.00;;;;;;;4.38;100.00;101981.97;20971237;28;20055;-71
2022/11/27 03:54:17;;;;;;;10.90;4.80;;;;;;;4.28;100.00;101972.75;20995755;28;20638;-72
2022/11/27 04:04:39;;;;;;;14.48;5.22;;;;;;;4.22;100.00;101960.81;21021993;28;20048;-71
2022/11/27 04:15:01;;;;;;;9.65;5.50;;;;;;;4.10;100.00;101955.06;21002797;28;20047;-71
2022/11/27 04:25:23;;;;;;;11.87;6.20;;;;;;;4.00;100.00;101956.13;20991677;28;20040;-71
2022/11/27 04:35:44;;;;;;;14.65;6.97;;;;;;;3.94;100.00;101931.31;21003243;28;20090;-72
2022/11/27 04:46:06;;;;;;;15.67;7.47;;;;;;;3.96;100.00;101936.44;20989028;28;20125;-71
2022/11/27 04:56:27;;;;;;;22.93;8.20;;;;;;;3.84;100.00;101900.56;20993179;28;20131;-71
2022/11/27 05:06:49;;;;;;;14.77;7.90;;;;;;;3.72;100.00;101880.19;20987382;28;20651;-71
2022/11/27 05:17:10;;;;;;;20.33;8.40;;;;;;;3.71;100.00;101877.66;20991518;28;20040;-71
2022/11/27 05:27:32;;;;;;;16.20;7.47;;;;;;;3.65;100.00;101868.28;20996023;28;20045;-72
2022/11/27 05:37:53;;;;;;;13.80;7.67;;;;;;;3.59;100.00;101878.75;20984687;28;20044;-72
2022/11/27 05:48:15;;;;;;;17.77;7.73;;;;;;;3.57;100.00;101859.00;20983400;28;20667;-72
2022/11/27 05:58:38;;;;;;;14.27;7.63;;;;;;;3.44;100.00;101853.25;20995084;28;20083;-74
2022/11/27 06:09:00;;;;;;;16.75;8.07;;;;;;;3.37;100.00;101845.69;20993999;28;20106;-72
2022/11/27 06:19:21;;;;;;;15.77;7.70;;;;;;;3.38;100.00;101848.22;20982781;28;20109;-72
2022/11/27 06:29:43;;;;;;;13.03;7.80;;;;;;;3.36;100.00;101833.69;20979030;28;20040;-72
2022/11/27 06:40:05;;;;;;;17.07;7.83;;;;;;;3.33;100.00;101832.00;20999334;28;20041;-72
2022/11/27 06:50:26;;;;;;;15.55;8.00;;;;;;;3.29;100.00;101832.94;20992115;28;20073;-72
2022/11/27 07:00:48;;;;;;;17.23;7.20;;;;;;;3.32;100.00;101832.91;20988151;28;20040;-67
2022/11/27 07:11:13;;;;;;;20.63;7.87;;;;;;;3.34;100.00;101826.00;20953270;28;20040;-72
2022/11/27 07:21:36;;;;;;;16.15;7.45;;;;;;;3.36;100.00;101823.38;20965675;28;20106;-72
2022/11/27 07:31:58;;;;;;;18.27;8.05;;;;;;;3.31;100.00;101818.31;20975297;28;20044;-71
2022/11/27 07:42:19;;;;;;;13.40;7.67;;;;;;;3.30;100.00;101803.72;20965406;28;20933;-72
2022/11/27 07:52:58;;;;;;;14.52;7.60;;;;;;;3.24;100.00;101798.69;20955556;28;20036;-73
2022/11/27 08:03:20;;;;;;;13.93;7.63;;;;;;;3.28;100.00;101777.16;20935270;28;20052;-75
2022/11/27 08:13:41;;;;;;;17.33;8.07;;;;;;;3.26;100.00;101766.03;20958782;28;20049;-75
2022/11/27 08:24:03;;;;;;;16.30;7.87;;;;;;;3.42;100.00;101772.56;20953550;28;20052;-77
2022/11/27 08:34:25;;;;;;;;;;;;;;;3.58;100.00;101740.44;20953694;28;20193;-74
2022/11/27 08:44:47;;;;;;;13.00;7.28;;;;;;;3.75;100.00;101725.44;20959100;28;19966;-75
2022/11/27 08:55:08;;;;;;;13.10;7.90;;;;;;;3.92;100.00;101703.53;20959506;28;20487;-73
2022/11/27 09:05:31;;;;;;;14.43;7.73;;;;;;;4.04;98.91;101707.56;20980812;28;20057;-73
2022/11/27 09:15:55;;;;;;;16.23;7.10;;;;;;;4.18;99.29;101726.16;20959730;28;20060;-72
2022/11/27 09:26:17;;;;;;;11.95;7.28;;;;;;;4.32;97.91;101734.41;20964144;28;20044;-72
2022/11/27 09:36:38;;;;;;;14.13;7.07;;;;;;;4.46;96.74;101729.72;20962007;28;20078;-72
2022/11/27 09:47:11;;;;;;;14.53;7.00;;;;;;;4.63;96.96;101730.16;20974549;28;20044;-70
2022/11/27 09:57:36;;;;;;;12.30;7.25;;;;;;;4.68;95.17;101733.44;20956244;28;20486;-71
2022/11/27 10:08:13;;;;;;;13.70;7.00;;;;;;;4.82;96.43;101729.63;20963968;28;20123;-72
2022/11/27 10:18:41;;;;;;;14.88;7.72;;;;;;;4.94;95.04;101712.06;20956431;28;20125;-72
2022/11/27 10:29:36;;;;;;;15.10;7.22;;;;;;;5.04;94.87;101703.16;20942695;28;20097;-71
2022/11/27 10:40:01;;;;;;;14.80;7.15;;;;;;;5.12;94.20;101701.19;20967120;28;20053;-71
2022/11/27 10:50:23;;;;;;;13.90;6.72;;;;;;;5.28;94.38;101691.28;20969022;28;20506;-71
2022/11/27 11:00:44;;;;;;;13.07;6.53;;;;;;;5.38;94.33;101678.06;20944844;28;20105;-72
2022/11/27 11:11:07;;;;;;;13.00;6.47;;;;;;;5.47;93.18;101662.25;20967842;28;20115;-71
2022/11/27 11:21:32;;;;;;;12.73;6.47;;;;;;;5.53;93.12;101651.69;20954482;28;20101;-72
2022/11/27 11:32:15;;;;;;;13.38;6.15;;;;;;;5.59;92.78;101636.00;20524611;28;20137;-65
2022/11/27 11:42:37;;;;;;;15.00;6.57;;;;;;;5.72;92.58;101621.78;20624177;28;20085;-64
2022/11/27 11:53:13;;;;;;;12.63;6.60;;;;;;;5.78;92.24;101601.78;20639955;28;20050;-62
2022/11/27 12:03:44;;;;;;;9.52;5.88;;;;;;;5.84;93.18;101598.13;20653225;28;20066;-65
2022/11/27 12:14:17;;;;;;;11.63;6.07;;;;;;;5.87;92.81;101585.13;20675755;28;20042;-65
2022/11/27 12:24:47;;;;;;;11.77;6.05;;;;;;;5.84;92.50;101575.72;20608783;28;20054;-63
2022/11/27 12:35:43;;;;;;;13.15;5.90;;;;;;;5.80;95.18;101537.09;20635500;28;20092;-63
2022/11/27 12:46:18;;;;;;;15.27;6.72;;;;;;;5.76;95.88;101538.88;20643090;28;20486;-62
2022/11/27 12:56:47;;;;;;;12.43;6.45;;;;;;;5.72;97.93;101528.69;20650167;28;20246;-64
2022/11/27 13:07:17;;;;;;;13.43;7.47;;;;;;;5.61;99.91;101515.28;20651590;28;20116;-65
2022/11/27 13:17:41;;;;;;;13.60;6.78;;;;;;;5.58;100.00;101499.84;20641977;28;20133;-65
2022/11/27 13:28:04;;;;;;;12.85;7.20;;;;;;;5.54;100.00;101490.50;20661521;28;20146;-63
2022/11/27 13:38:26;;;;;;;13.90;7.18;;;;;;;5.48;100.00;101482.09;20749979;28;20089;-66
2022/11/27 13:49:02;;;;;;;11.77;7.25;;;;;;;5.47;100.00;101458.00;20653021;28;20046;-63
2022/11/27 13:59:24;;;;;;;14.43;6.90;;;;;;;5.47;100.00;101434.75;20662379;28;20417;-64
2022/11/27 14:09:50;;;;;;;13.63;7.22;;;;;;;5.45;100.00;101428.78;20658915;28;20046;-65
2022/11/27 14:20:14;;;;;;;14.85;7.57;;;;;;;5.42;100.00;101389.28;20632440;28;20109;-63
2022/11/27 14:30:49;;;;;;;15.00;7.68;;;;;;;5.45;100.00;101384.84;20662375;28;20156;-63
2022/11/27 14:41:16;;;;;;;14.68;8.48;;;;;;;5.50;100.00;101367.44;20667050;28;20049;-63
2022/11/27 14:51:39;;;;;;;15.95;8.23;;;;;;;5.54;100.00;101381.91;20686802;28;20046;-64
2022/11/27 15:02:10;;;;;;;17.05;8.48;;;;;;;5.60;100.00;101355.84;20678357;28;20050;-63
2022/11/27 15:12:44;;;;;;;16.35;8.60;;;;;;;5.61;100.00;101344.63;20659859;28;20052;-62
2022/11/27 15:23:20;;;;;;;17.50;7.82;;;;;;;5.61;100.00;101342.03;20663469;28;20042;-63
2022/11/27 15:33:41;;;;;;;15.38;8.57;;;;;;;5.55;100.00;101325.91;20643708;28;20386;-64
2022/11/27 15:44:03;;;;;;;16.23;8.90;;;;;;;5.54;100.00;101312.09;20672356;28;20502;-65
2022/11/27 15:54:25;;;;;;;15.80;8.47;;;;;;;5.50;100.00;101297.63;20645222;28;20046;-64
2022/11/27 16:04:46;;;;;;;20.00;8.48;;;;;;;5.49;100.00;101288.19;20657995;28;20504;-63
2022/11/27 16:15:08;;;;;;;18.37;8.47;;;;;;;5.47;100.00;101278.78;20639749;28;20050;-64
2022/11/27 16:25:30;;;;;;;19.13;10.02;;;;;;;5.46;100.00;101267.59;20630614;28;20055;-62
2022/11/27 16:35:51;;;;;;;15.70;9.33;;;;;;;5.47;100.00;101261.53;20644095;28;20077;-61
2022/11/27 16:46:16;;;;;;;25.50;10.23;;;;;;;5.47;100.00;101246.03;20665166;28;20081;-61
2022/11/27 16:56:38;;;;;;;18.73;8.95;;;;;;;5.55;100.00;101231.06;20664177;28;20074;-61
2022/11/27 17:07:00;;;;;;;18.40;9.07;;;;;;;5.53;100.00;101230.28;20684337;28;20050;-61
2022/11/27 17:17:21;;;;;;;16.93;9.17;;;;;;;5.55;100.00;101225.88;20664331;28;20054;-62
2022/11/27 17:27:42;;;;;;;23.17;9.70;;;;;;;5.53;100.00;101222.50;20648943;28;20474;-61
2022/11/27 17:38:04;;;;;;;22.13;9.83;;;;;;;5.54;100.00;101203.50;20734441;22;20042;-76
2022/11/27 17:48:26;;;;;;;16.73;9.67;;;;;;;5.59;100.00;101199.03;20772357;28;20346;-77
2022/11/27 17:58:49;;;;;;;15.40;8.25;;;;;;;5.61;100.00;101171.38;20778818;28;20048;-76
2022/11/27 18:09:11;;;;;;;17.23;8.80;;;;;;;5.63;100.00;101154.06;20763966;28;20098;-76
2022/11/27 18:19:32;;;;;;;18.50;8.27;;;;;;;5.63;100.00;101133.38;20778714;28;20049;-76
2022/11/27 18:29:54;;;;;;;15.70;8.50;;;;;;;5.59;100.00;101124.03;20740202;28;20033;-74
2022/11/27 18:40:15;;;;;;;14.33;7.90;;;;;;;5.61;100.00;101117.06;20763504;28;20127;-77
2022/11/27 18:50:37;;;;;;;14.63;6.97;;;;;;;5.63;100.00;101104.94;20765456;28;20038;-78
2022/11/27 19:00:59;;;;;;;15.50;7.50;;;;;;;5.64;100.00;101098.84;20776176;28;20135;-77
2022/11/27 19:11:22;;;;;;;14.25;6.43;;;;;;;-139.34;74.25;78700.72;20770475;28;20453;-77
2022/11/27 19:21:43;;;;;;;9.25;5.65;;;;;;;-139.34;73.36;78692.69;20769155;28;20389;-75
2022/11/27 19:32:05;;;;;;;10.30;4.73;;;;;;;-139.34;72.33;78684.69;20763760;28;20446;-76
2022/11/27 19:42:26;;;;;;;6.67;4.47;;;;;;;-139.34;72.09;78684.69;20759123;28;20487;-78
2022/11/27 19:52:48;;;;;;;7.77;4.60;;;;;;;-139.34;72.55;78674.66;20748455;28;20539;-72
2022/11/27 20:03:09;;;;;;;8.67;4.73;;;;;;;-139.34;71.60;78680.66;20780144;28;20065;-73
2022/11/27 20:13:31;;;;;;;9.43;4.63;;;;;;;-139.34;72.38;78676.66;20765306;28;20092;-75
2022/11/27 20:23:53;;;;;;;9.40;4.22;;;;;;;-139.34;72.95;78656.63;20758280;28;20107;-74
2022/11/27 20:34:20;;;;;;;7.22;3.55;;;;;;;-139.34;72.77;78652.63;20770876;28;20038;-75
2022/11/27 20:44:42;;;;;;;10.18;4.60;;;;;;;-139.34;73.09;78644.59;20772788;28;20050;-74
2022/11/27 20:55:04;;;;;;;6.37;3.43;;;;;;;-139.34;72.50;78636.56;20771988;28;20038;-77
2022/11/27 21:05:25;;;;;;;;;;;;;;;-139.34;71.95;78632.56;20779233;28;20054;-74
2022/11/27 21:15:47;;;;;;;7.82;3.63;;;;;;;-139.34;72.11;78628.56;20768052;28;20039;-73
2022/11/27 21:26:09;;;;;;;6.60;3.47;;;;;;;-139.34;72.31;78630.56;20774068;28;20103;-74
2022/11/27 21:36:35;;;;;;;7.40;3.60;;;;;;;-139.34;72.78;78628.56;20752609;28;20045;-73
2022/11/27 21:46:58;;;;;;;5.03;3.30;;;;;;;-139.34;73.00;78616.53;20761241;28;20391;-73
2022/11/27 21:57:20;;;;;;;8.05;3.47;;;;;;;-139.34;73.38;78604.50;20776726;28;20098;-72
2022/11/27 22:07:42;;;;;;;4.82;2.95;;;;;;;-139.34;73.09;78604.50;20766861;28;20453;-73
2022/11/27 22:18:03;;;;;;;5.00;3.00;;;;;;;-139.34;73.40;78588.47;20753890;28;20057;-75
2022/11/27 22:28:25;;;;;;;7.13;3.43;;;;;;;-139.34;73.60;78584.47;20757134;28;20085;-73
2022/11/27 22:38:49;;;;;;;6.47;3.10;;;;;;;-139.34;73.70;78570.44;20776776;28;20112;-72
2022/11/27 22:49:12;;;;;;;4.97;2.70;;;;;;;-139.34;73.46;78554.41;20774896;28;20049;-71
2022/11/27 22:59:34;;;;;;;5.57;2.55;;;;;;;-139.34;74.15;78544.38;20767826;28;20606;-72
2022/11/27 23:09:55;;;;;;;6.20;3.30;;;;;;;-139.34;74.94;78534.38;20779630;28;20056;-71
2022/11/27 23:20:17;;;;;;;4.27;3.30;;;;;;;-139.34;75.02;78528.34;20751591;28;20042;-72
2022/11/27 23:30:38;;;;;;;5.60;3.10;;;;;;;-139.34;74.38;78526.34;20781684;28;20080;-71
2022/11/27 23:41:26;;;;;;;5.40;3.57;;;;;;;-139.34;74.18;78524.34;20811354;22;20087;-60
2022/11/27 23:51:48;;;;;;;5.22;3.60;;;;;;;-139.34;74.40;78516.34;20932166;28;20044;-60
